Flight Track Log - Related Links

Times and Time Zones

All times are in EDT time to prevent confusion due to time zone crossing. See the N6751Y flight status page for this flight to view local times or setup timezone preferences in your user account.

Time Position Orientation Groundspeed Altitude Reporting Facility
EDT Latitude Longitude Course Direction KTS MPH feet Rate Location/Type
Sun 06:07:06 PM 33.8500 -118.0000 140° Southeast 133 153 1,800  Level Southern California TRACON
Sun 06:08:07 PM 33.8167 -117.9667 121° Southeast 136 157 2,800 645 Climbing Southern California TRACON
Sun 06:09:07 PM 33.8000 -117.9333 59° Northeast 154 177 3,100 496 Climbing Southern California TRACON
Sun 06:10:08 PM 33.8167 -117.9000 68° East 140 161 3,800 694 Climbing Southern California TRACON
Sun 06:11:08 PM 33.8333 -117.8500 59° Northeast 130 150 4,500 650 Climbing Southern California TRACON
Sun 06:12:08 PM 33.8500 -117.8167 90° East 130 150 5,100 248 Climbing Southern California TRACON
Sun 06:13:09 PM 33.8500 -117.7667 59° Northeast 141 162 5,000 -50 Descending Southern California TRACON
Sun 06:14:09 PM 33.8667 -117.7333 68° East 133 153 5,000  Level Southern California TRACON
Sun 06:15:09 PM 33.8833 -117.6833 90° East 133 153 5,000  Level Southern California TRACON
Sun 06:16:09 PM 33.8833 -117.6333 59° Northeast 133 153 5,000 50 Level Southern California TRACON
Sun 06:17:09 PM 33.9000 -117.6000 59° Northeast 136 157 5,100  Climbing Southern California TRACON
Sun 06:18:04 PM 33.9167 -117.5667 90° East 127 146 5,000 -100 Descending Southern California TRACON
Sun 06:19:09 PM 33.9167 -117.5167 59° Northeast 120 138 4,900  Descending Southern California TRACON
Sun 06:20:04 PM 33.9333 -117.4833 59° Northeast 115 132 5,000 -198 Climbing Southern California TRACON
Sun 06:21:10 PM 33.9500 -117.4500 320° Northwest 132 152 4,500 -571 Descending Southern California TRACON
Sun 06:22:10 PM 33.9667 -117.4667 270° West 146 168 3,800 -650 Descending Southern California TRACON
Sun 06:23:10 PM 33.9667 -117.5167 301° West 137 158 3,200 -650 Descending Southern California TRACON
Sun 06:24:10 PM 33.9833 -117.5500 270° West 109 125 2,500 -789 Descending Southern California TRACON
Sun 06:25:04 PM 33.9833 -117.5833 270° West 87 100 1,700 -730 Descending Southern California TRACON
Sun 06:26:05 PM 33.9833 -117.6000 270° West 78 90 1,100 -446 Descending Southern California TRACON
Sun 06:27:05 PM 33.9833 -117.6333 270° West 75 86 800 -300 Descending Southern California TRACON

Login

Don't have an account? Register now (free) for customized features, flight alerts, and more!